createdAt,value
2018-11-02T00:01:57.877Z,16.48
2018-11-02T00:04:26.571Z,16.46
2018-11-02T00:06:55.259Z,16.48
2018-11-02T00:09:23.947Z,16.39
2018-11-02T00:11:52.662Z,16.46
2018-11-02T00:14:21.354Z,16.46
2018-11-02T00:16:50.002Z,16.40
2018-11-02T00:19:22.784Z,16.37
2018-11-02T00:21:51.433Z,16.34
2018-11-02T00:24:20.102Z,16.42
2018-11-02T00:26:48.830Z,16.41
2018-11-02T00:29:17.486Z,16.45
2018-11-02T00:31:46.261Z,16.42
2018-11-02T00:34:14.896Z,16.44
2018-11-02T00:36:43.721Z,16.43
2018-11-02T00:39:12.401Z,16.34
2018-11-02T00:41:41.118Z,16.35
2018-11-02T00:44:10.659Z,16.22
2018-11-02T00:46:39.868Z,16.29
2018-11-02T00:49:09.239Z,16.32
2018-11-02T00:51:38.489Z,16.32
2018-11-02T00:54:07.460Z,16.34
2018-11-02T00:56:36.225Z,16.29
2018-11-02T00:59:04.940Z,16.28
2018-11-02T01:01:33.621Z,16.25
2018-11-02T01:04:02.356Z,16.20
2018-11-02T01:06:31.044Z,16.26
2018-11-02T01:08:59.716Z,16.29
2018-11-02T01:11:28.416Z,16.32
2018-11-02T01:13:57.738Z,16.30
2018-11-02T01:16:26.485Z,16.28
2018-11-02T01:18:55.170Z,16.24
2018-11-02T01:21:23.869Z,16.25
2018-11-02T01:23:52.582Z,16.25
2018-11-02T01:26:21.232Z,16.25
2018-11-02T01:28:49.926Z,16.23
2018-11-02T01:31:18.640Z,16.21
2018-11-02T01:33:47.298Z,16.23
2018-11-02T01:36:16.007Z,16.28
2018-11-02T01:38:44.684Z,16.29
2018-11-02T01:41:13.692Z,16.25
2018-11-02T01:43:42.358Z,16.30
2018-11-02T01:46:11.329Z,16.30
2018-11-02T01:48:40.067Z,16.25
2018-11-02T01:51:08.725Z,16.21
2018-11-02T01:53:37.430Z,16.23
2018-11-02T01:56:06.121Z,16.24
2018-11-02T01:58:34.784Z,16.23
2018-11-02T02:01:03.493Z,16.30
2018-11-02T02:03:32.149Z,16.29
2018-11-02T02:06:00.866Z,16.21
2018-11-02T02:08:29.549Z,16.20
2018-11-02T02:10:58.254Z,16.22
2018-11-02T02:13:27.103Z,16.14
2018-11-02T02:15:55.726Z,16.10
2018-11-02T02:18:24.364Z,16.06
2018-11-02T02:20:53.120Z,16.00
2018-11-02T02:23:21.836Z,15.94
2018-11-02T02:25:50.541Z,15.91
2018-11-02T02:28:19.200Z,15.88
2018-11-02T02:30:47.922Z,15.88
2018-11-02T02:33:16.655Z,15.84
2018-11-02T02:35:45.373Z,15.83
2018-11-02T02:38:14.133Z,15.81
2018-11-02T02:40:42.824Z,15.77
2018-11-02T02:43:11.507Z,15.76
2018-11-02T02:45:40.214Z,15.78
2018-11-02T02:48:08.945Z,15.77
2018-11-02T02:50:37.799Z,15.72
2018-11-02T02:53:06.645Z,15.71
2018-11-02T02:55:35.298Z,15.70
2018-11-02T02:58:04.021Z,15.72
2018-11-02T03:00:32.716Z,15.67
2018-11-02T03:03:01.447Z,15.59
2018-11-02T03:05:30.180Z,15.58
2018-11-02T03:07:58.869Z,15.53
2018-11-02T03:10:27.653Z,15.54
2018-11-02T03:12:56.344Z,15.39
2018-11-02T03:15:25.059Z,15.43
2018-11-02T03:17:53.825Z,15.45
2018-11-02T03:20:22.559Z,15.44
2018-11-02T03:22:51.245Z,15.43
2018-11-02T03:25:20.053Z,15.45
2018-11-02T03:27:48.735Z,15.42
2018-11-02T03:30:18.291Z,15.45
2018-11-02T03:32:47.017Z,15.39
2018-11-02T03:35:15.767Z,15.38
2018-11-02T03:37:44.453Z,15.31
2018-11-02T03:40:13.177Z,15.26
2018-11-02T03:42:42.212Z,15.30
2018-11-02T03:45:10.904Z,15.27
2018-11-02T03:47:39.676Z,15.22
2018-11-02T03:50:09.692Z,15.21
2018-11-02T03:52:38.709Z,15.16
2018-11-02T03:55:08.161Z,15.18
2018-11-02T03:57:36.874Z,15.13
2018-11-02T04:00:10.514Z,15.07
2018-11-02T04:02:39.544Z,15.06
2018-11-02T04:05:08.984Z,15.01
2018-11-02T04:07:37.728Z,15.01
2018-11-02T04:10:08.145Z,14.97
2018-11-02T04:12:36.863Z,14.88
2018-11-02T04:15:05.725Z,14.86
2018-11-02T04:17:34.457Z,14.82
2018-11-02T04:20:03.176Z,14.82
2018-11-02T04:22:31.962Z,14.78
2018-11-02T04:25:00.685Z,14.71
2018-11-02T04:27:29.488Z,14.75
2018-11-02T04:29:58.185Z,14.79
2018-11-02T04:32:26.928Z,14.77
2018-11-02T04:34:55.802Z,14.81
2018-11-02T04:37:24.563Z,14.70
2018-11-02T04:39:53.249Z,14.76
2018-11-02T04:42:22.030Z,14.75
2018-11-02T04:44:50.680Z,14.69
2018-11-02T04:47:19.433Z,14.71
2018-11-02T04:49:48.149Z,14.72
2018-11-02T04:52:16.857Z,14.69
2018-11-02T04:54:45.574Z,14.61
2018-11-02T04:57:14.413Z,14.64
2018-11-02T04:59:43.128Z,14.64
2018-11-02T05:02:11.835Z,14.57
2018-11-02T05:04:40.563Z,14.61
2018-11-02T05:07:09.265Z,14.58
2018-11-02T05:09:38.022Z,14.60
2018-11-02T05:12:07.034Z,14.63
2018-11-02T05:14:36.049Z,14.63
2018-11-02T05:17:04.768Z,14.52
2018-11-02T05:19:33.488Z,14.53
2018-11-02T05:22:02.177Z,14.60
2018-11-02T05:24:31.001Z,14.60
2018-11-02T05:26:59.757Z,14.61
2018-11-02T05:29:28.524Z,14.59
2018-11-02T05:31:57.213Z,14.68
2018-11-02T05:34:25.953Z,14.61
2018-11-02T05:36:54.695Z,14.65
2018-11-02T05:39:23.776Z,14.69
2018-11-02T05:41:52.551Z,14.69
2018-11-02T05:44:21.258Z,14.65
2018-11-02T05:46:49.984Z,14.68
2018-11-02T05:49:18.690Z,14.56
2018-11-02T05:51:47.393Z,14.64
2018-11-02T05:54:16.135Z,14.74
2018-11-02T05:56:44.836Z,14.76
2018-11-02T05:59:13.496Z,14.83
2018-11-02T06:01:42.212Z,14.87
2018-11-02T06:04:10.925Z,14.83
2018-11-02T06:06:39.688Z,14.84
2018-11-02T06:09:08.977Z,14.84
2018-11-02T06:11:38.396Z,14.84
2018-11-02T06:14:07.110Z,14.84
2018-11-02T06:16:35.872Z,14.92
2018-11-02T06:19:04.584Z,14.90
2018-11-02T06:25:35.751Z,14.64
2018-11-02T06:28:54.303Z,14.78
2018-11-02T06:31:22.996Z,14.88
2018-11-02T06:33:51.685Z,14.86
2018-11-02T06:36:20.357Z,14.97
2018-11-02T06:38:49.157Z,14.94
2018-11-02T06:41:17.815Z,15.07
2018-11-02T06:43:46.502Z,15.15
2018-11-02T06:46:15.330Z,15.16
2018-11-02T06:48:44.192Z,15.20
2018-11-02T06:51:12.891Z,15.31
2018-11-02T06:53:41.591Z,15.40
2018-11-02T06:57:39.869Z,15.26
2018-11-02T07:00:11.369Z,15.11
2018-11-02T07:02:41.051Z,15.33
2018-11-02T07:05:10.433Z,15.41
2018-11-02T07:07:39.498Z,15.42
2018-11-02T07:10:09.298Z,15.48
2018-11-02T07:12:38.247Z,15.38
2018-11-02T07:15:07.716Z,15.53
2018-11-02T07:17:36.434Z,15.64
2018-11-02T07:20:06.173Z,15.46
2018-11-02T07:22:34.891Z,15.49
2018-11-02T07:25:03.720Z,15.72
2018-11-02T07:27:32.432Z,15.81
2018-11-02T07:30:01.294Z,16.03
2018-11-02T07:32:30.050Z,16.11
2018-11-02T07:34:58.726Z,16.26
2018-11-02T07:37:27.476Z,16.38
2018-11-02T07:39:56.134Z,16.57
2018-11-02T07:42:24.993Z,16.66
2018-11-02T07:44:53.647Z,16.69
2018-11-02T07:47:22.416Z,16.73
2018-11-02T07:49:52.151Z,16.92
2018-11-02T07:52:20.869Z,16.88
2018-11-02T07:54:49.550Z,16.99
2018-11-02T07:57:18.318Z,17.18
2018-11-02T07:59:47.089Z,17.31
2018-11-02T08:02:15.783Z,17.22
2018-11-02T08:04:44.485Z,17.41
2018-11-02T08:07:13.310Z,17.49
2018-11-02T08:09:42.336Z,17.62
2018-11-02T08:12:11.092Z,17.56
2018-11-02T08:14:39.840Z,17.68
2018-11-02T08:17:08.753Z,17.72
2018-11-02T08:19:38.110Z,17.80
2018-11-02T08:22:06.877Z,17.95
2018-11-02T08:24:35.688Z,17.90
2018-11-02T08:27:04.397Z,17.96
2018-11-02T08:29:33.110Z,17.95
2018-11-02T08:32:01.898Z,18.05
2018-11-02T08:34:30.505Z,18.19
2018-11-02T08:36:59.285Z,18.32
2018-11-02T08:39:27.969Z,18.36
2018-11-02T08:41:57.049Z,18.45
2018-11-02T08:44:25.736Z,18.57
2018-11-02T08:46:54.481Z,18.51
2018-11-02T08:49:23.272Z,18.46
2018-11-02T08:51:52.016Z,18.45
2018-11-02T08:54:20.670Z,18.74
2018-11-02T08:56:49.360Z,18.69
2018-11-02T08:59:18.148Z,18.66
2018-11-02T09:01:46.761Z,18.81
2018-11-02T09:04:15.424Z,18.86
2018-11-02T09:06:44.158Z,18.92
2018-11-02T09:09:13.096Z,19.00
2018-11-02T09:11:41.796Z,19.20
2018-11-02T09:14:10.484Z,19.43
2018-11-02T09:16:39.285Z,19.63
2018-11-02T09:19:08.235Z,20.05
2018-11-02T09:21:37.025Z,20.17
2018-11-02T09:24:05.941Z,20.81
2018-11-02T09:26:34.624Z,21.22
2018-11-02T09:29:03.426Z,21.49
2018-11-02T09:31:32.135Z,21.78
2018-11-02T09:34:00.842Z,21.88
2018-11-02T09:36:29.605Z,22.28
2018-11-02T09:38:58.304Z,22.40
2018-11-02T09:41:27.024Z,22.02
2018-11-02T09:43:55.866Z,22.74
2018-11-02T09:46:24.576Z,22.86
2018-11-02T09:48:54.079Z,22.90
2018-11-02T09:51:22.788Z,22.80
2018-11-02T09:53:53.799Z,23.11
2018-11-02T09:56:22.545Z,23.45
2018-11-02T09:58:51.266Z,23.91
2018-11-02T10:01:20.292Z,24.37
2018-11-02T10:03:49.053Z,24.22
2018-11-02T10:06:17.970Z,24.14
2018-11-02T10:08:46.691Z,24.60
2018-11-02T10:11:15.692Z,24.67
2018-11-02T10:13:44.884Z,24.52
2018-11-02T10:16:13.617Z,24.41
2018-11-02T10:18:42.373Z,23.98
2018-11-02T10:21:14.311Z,24.06
2018-11-02T10:23:43.072Z,24.14
2018-11-02T10:26:11.801Z,24.66
2018-11-02T10:28:40.643Z,24.85
2018-11-02T10:31:10.707Z,24.87
2018-11-02T10:33:39.714Z,24.89
2018-11-02T10:36:08.571Z,25.36
2018-11-02T10:38:38.776Z,25.06
2018-11-02T10:41:08.365Z,25.42
2018-11-02T10:43:38.199Z,25.77
2018-11-02T10:46:07.040Z,25.79
2018-11-02T10:48:35.814Z,25.73
2018-11-02T10:51:04.624Z,25.60
2018-11-02T10:53:33.306Z,25.28
2018-11-02T10:56:02.063Z,25.24
2018-11-02T10:58:30.716Z,25.76
2018-11-02T11:01:04.682Z,25.89
2018-11-02T11:03:33.293Z,25.80
2018-11-02T11:06:02.237Z,26.29
2018-11-02T11:08:30.920Z,26.41
2018-11-02T11:10:59.656Z,26.46
2018-11-02T11:13:28.704Z,26.66
2018-11-02T11:15:57.207Z,26.35
2018-11-02T11:18:25.916Z,26.61
2018-11-02T11:20:55.016Z,27.04
2018-11-02T11:23:24.341Z,26.69
2018-11-02T11:25:53.086Z,26.94
2018-11-02T11:28:21.945Z,26.91
2018-11-02T11:30:50.664Z,27.06
2018-11-02T11:33:20.092Z,27.14
2018-11-02T11:35:49.663Z,27.11
2018-11-02T11:38:20.040Z,27.22
2018-11-02T11:40:48.838Z,27.15
2018-11-02T11:43:17.550Z,27.19
2018-11-02T11:45:46.526Z,27.06
2018-11-02T11:48:16.120Z,27.39
2018-11-02T11:50:45.064Z,27.33
2018-11-02T11:53:14.708Z,27.17
2018-11-02T11:55:43.431Z,27.19
2018-11-02T11:58:12.177Z,27.00
2018-11-02T12:00:41.012Z,27.06
2018-11-02T12:03:09.785Z,27.21
2018-11-02T12:05:39.695Z,27.56
2018-11-02T12:08:08.757Z,27.60
2018-11-02T12:10:37.507Z,27.45
2018-11-02T12:13:06.462Z,27.73
2018-11-02T12:15:35.366Z,27.64
2018-11-02T12:18:04.213Z,27.73
2018-11-02T12:20:32.912Z,27.85
2018-11-02T12:23:02.960Z,27.97
2018-11-02T12:25:32.005Z,27.47
2018-11-02T12:28:06.134Z,27.68
2018-11-02T12:30:34.858Z,27.56
2018-11-02T12:33:03.540Z,27.51
2018-11-02T12:35:32.284Z,27.46
2018-11-02T12:38:01.042Z,27.61
2018-11-02T12:40:29.728Z,27.73
2018-11-02T12:42:58.466Z,27.54
2018-11-02T12:45:27.176Z,27.46
2018-11-02T12:47:55.940Z,27.05
2018-11-02T12:50:27.402Z,27.45
2018-11-02T12:52:57.410Z,27.51
2018-11-02T12:55:26.177Z,27.46
2018-11-02T12:57:54.926Z,27.57
2018-11-02T13:00:24.733Z,27.55
2018-11-02T13:02:54.436Z,27.71
2018-11-02T13:05:23.141Z,27.35
2018-11-02T13:07:51.855Z,27.49
2018-11-02T13:10:21.840Z,27.37
2018-11-02T13:12:50.564Z,27.20
2018-11-02T13:15:20.829Z,27.13
2018-11-02T13:17:50.135Z,26.67
2018-11-02T13:20:19.091Z,26.42
2018-11-02T13:22:48.631Z,26.13
2018-11-02T13:25:19.465Z,25.92
2018-11-02T13:27:48.910Z,25.93
2018-11-02T13:30:17.807Z,25.66
2018-11-02T13:32:46.478Z,25.77
2018-11-02T13:35:16.677Z,25.89
2018-11-02T13:37:45.864Z,25.94
2018-11-02T13:40:16.309Z,25.75
2018-11-02T13:42:45.150Z,26.06
2018-11-02T13:45:15.752Z,25.98
2018-11-02T13:47:45.791Z,25.99
2018-11-02T13:50:14.718Z,26.01
2018-11-02T13:52:44.362Z,26.02
2018-11-02T13:55:13.566Z,26.09
2018-11-02T13:57:42.485Z,26.24
2018-11-02T14:00:16.269Z,26.22
2018-11-02T14:02:45.109Z,26.19
2018-11-02T14:05:15.032Z,26.26
2018-11-02T14:07:44.101Z,26.32
2018-11-02T14:10:13.324Z,26.15
2018-11-02T14:12:42.305Z,26.16
2018-11-02T14:15:13.474Z,26.17
2018-11-02T14:17:43.873Z,26.22
2018-11-02T14:24:49.920Z,25.81
2018-11-02T14:27:18.731Z,25.69
2018-11-02T14:29:47.464Z,25.35
2018-11-02T14:32:16.217Z,25.23
2018-11-02T14:34:45.068Z,24.97
2018-11-02T14:37:13.949Z,24.68
2018-11-02T14:39:42.656Z,24.19
2018-11-02T14:42:11.770Z,23.91
2018-11-02T14:44:40.448Z,23.63
2018-11-02T14:47:09.149Z,23.42
2018-11-02T14:49:37.801Z,23.15
2018-11-02T14:52:06.673Z,22.95
2018-11-02T14:54:35.365Z,22.79
2018-11-02T14:57:04.040Z,22.60
2018-11-02T14:59:32.793Z,22.37
2018-11-02T15:02:01.452Z,22.29
2018-11-02T15:04:30.143Z,22.11
2018-11-02T15:06:58.869Z,21.90
2018-11-02T15:09:27.596Z,21.77
2018-11-02T15:11:56.323Z,21.64
2018-11-02T15:14:25.008Z,21.33
2018-11-02T15:16:53.700Z,21.25
2018-11-02T15:19:22.445Z,21.12
2018-11-02T15:21:51.158Z,20.92
2018-11-02T15:24:19.941Z,20.84
2018-11-02T15:26:48.611Z,20.64
2018-11-02T15:29:17.323Z,20.44
2018-11-02T15:31:46.062Z,20.25
2018-11-02T15:34:14.842Z,20.29
2018-11-02T15:36:43.489Z,20.20
2018-11-02T15:39:13.154Z,20.17
2018-11-02T15:41:42.259Z,20.11
2018-11-02T15:44:11.121Z,19.84
2018-11-02T15:46:39.929Z,19.79
2018-11-02T15:49:08.663Z,19.68
2018-11-02T15:51:37.374Z,19.68
2018-11-02T15:54:06.486Z,19.67
2018-11-02T15:56:35.276Z,19.65
2018-11-02T15:59:04.091Z,19.51
2018-11-02T16:01:32.789Z,19.48
2018-11-02T16:04:37.862Z,19.44
2018-11-02T16:07:06.787Z,19.37
2018-11-02T16:09:35.711Z,19.31
2018-11-02T16:12:04.502Z,19.17
2018-11-02T16:14:33.395Z,19.03
2018-11-02T16:19:25.764Z,18.91
2018-11-02T16:31:02.129Z,18.48
2018-11-02T16:33:30.790Z,18.52
2018-11-02T16:35:59.433Z,18.57
2018-11-02T16:38:28.157Z,18.59
2018-11-02T16:40:56.825Z,18.67
2018-11-02T16:43:25.569Z,18.55
2018-11-02T16:45:54.290Z,18.56
2018-11-02T16:48:22.948Z,18.54
2018-11-02T16:50:51.632Z,18.55
2018-11-02T16:53:20.318Z,18.59
2018-11-02T16:55:49.088Z,18.55
2018-11-02T16:58:17.801Z,18.49
2018-11-02T17:00:46.524Z,18.42
2018-11-02T17:03:15.292Z,18.39
2018-11-02T17:05:44.057Z,18.30
2018-11-02T17:08:12.858Z,18.18
2018-11-02T17:10:41.557Z,18.17
2018-11-02T17:13:10.192Z,18.13
2018-11-02T17:15:38.913Z,18.12
2018-11-02T17:18:07.738Z,17.99
2018-11-02T17:20:36.436Z,17.82
2018-11-02T17:23:05.241Z,17.65
2018-11-02T17:25:34.009Z,17.52
2018-11-02T17:28:03.330Z,17.24
2018-11-02T17:30:32.044Z,17.24
2018-11-02T17:33:00.745Z,17.08
2018-11-02T17:35:44.190Z,16.91
2018-11-02T17:38:12.850Z,16.71
2018-11-02T17:40:41.537Z,16.66
2018-11-02T17:43:10.284Z,16.56
2018-11-02T17:45:39.000Z,16.55
2018-11-02T17:48:07.684Z,16.44
2018-11-02T17:50:37.075Z,16.30
2018-11-02T17:53:05.883Z,16.28
2018-11-02T17:55:34.537Z,16.17
2018-11-02T17:58:03.337Z,16.17
2018-11-02T18:00:32.235Z,16.15
2018-11-02T18:03:00.929Z,16.16
2018-11-02T18:05:29.669Z,16.13
2018-11-02T18:07:58.404Z,16.12
2018-11-02T18:10:27.148Z,16.04
2018-11-02T18:12:55.882Z,15.96
2018-11-02T18:15:24.616Z,15.87
2018-11-02T18:17:53.359Z,15.82
2018-11-02T18:20:22.076Z,15.83
2018-11-02T18:22:50.802Z,15.80
2018-11-02T18:25:19.646Z,15.73
2018-11-02T18:27:48.387Z,15.70
2018-11-02T18:30:17.166Z,15.60
2018-11-02T18:32:45.855Z,15.55
2018-11-02T18:35:14.594Z,15.45
2018-11-02T18:37:43.372Z,15.40
2018-11-02T18:40:13.350Z,15.38
2018-11-02T18:42:42.301Z,15.31
2018-11-02T18:45:12.660Z,15.28
2018-11-02T18:47:48.739Z,15.23
2018-11-02T18:50:18.671Z,15.18
2018-11-02T18:52:47.945Z,15.10
2018-11-02T18:55:17.190Z,14.97
2018-11-02T18:57:46.020Z,14.95
2018-11-02T19:00:14.927Z,14.91
2018-11-02T19:02:43.737Z,14.87
2018-11-02T19:05:15.702Z,14.83
2018-11-02T19:07:44.507Z,14.79
2018-11-02T19:10:13.460Z,14.72
2018-11-02T19:12:42.757Z,14.67
2018-11-02T19:15:14.178Z,14.59
2018-11-02T19:17:43.176Z,14.56
2018-11-02T19:20:12.553Z,14.44
2018-11-02T19:22:41.248Z,14.36
2018-11-02T19:25:11.277Z,14.27
2018-11-02T19:27:40.017Z,14.22
2018-11-02T19:30:10.501Z,14.10
2018-11-02T19:32:39.338Z,14.04
2018-11-02T19:35:08.757Z,13.94
2018-11-02T19:37:37.490Z,13.97
2018-11-02T19:40:08.312Z,13.89
2018-11-02T19:42:37.012Z,13.90
2018-11-02T19:45:05.887Z,13.76
2018-11-02T19:48:09.929Z,13.67
2018-11-02T19:50:38.659Z,13.68
2018-11-02T19:53:08.361Z,13.61
2018-11-02T19:55:37.182Z,13.67
2018-11-02T19:58:06.203Z,13.56
2018-11-02T20:00:35.045Z,13.42
2018-11-02T20:03:03.732Z,13.44
2018-11-02T20:05:32.413Z,13.39
2018-11-02T20:08:01.750Z,13.35
2018-11-02T20:10:30.446Z,13.37
2018-11-02T20:12:59.159Z,13.25
2018-11-02T20:15:27.898Z,13.28
2018-11-02T20:17:56.646Z,13.26
2018-11-02T20:20:25.466Z,13.18
2018-11-02T20:22:54.097Z,13.17
2018-11-02T20:25:22.777Z,13.19
2018-11-02T20:27:52.400Z,13.25
2018-11-02T20:30:21.938Z,13.22
2018-11-02T20:32:50.671Z,13.16
2018-11-02T20:35:20.506Z,13.08
2018-11-02T20:37:49.225Z,13.02
2018-11-02T20:40:19.028Z,13.07
2018-11-02T20:42:47.857Z,12.94
2018-11-02T20:45:17.067Z,12.88
2018-11-02T20:47:54.727Z,12.91
2018-11-02T20:50:23.474Z,12.96
2018-11-02T20:52:52.763Z,12.86
2018-11-02T20:55:21.456Z,12.83
2018-11-02T20:57:50.144Z,12.83
2018-11-02T21:00:20.348Z,12.82
2018-11-02T21:02:49.141Z,12.76
2018-11-02T21:05:18.913Z,12.77
2018-11-02T21:07:48.238Z,12.70
2018-11-02T21:10:18.285Z,12.65
2018-11-02T21:12:47.168Z,12.53
2018-11-02T21:15:17.245Z,12.48
2018-11-02T21:17:46.108Z,12.53
2018-11-02T21:20:16.349Z,12.51
2018-11-02T21:22:45.105Z,12.52
2018-11-02T21:25:14.450Z,12.57
2018-11-02T21:27:43.750Z,12.52
2018-11-02T21:30:15.711Z,12.50
2018-11-02T21:32:45.097Z,12.42
2018-11-02T21:35:14.252Z,12.43
2018-11-02T21:37:42.941Z,12.43
2018-11-02T21:40:13.676Z,12.37
2018-11-02T21:42:42.946Z,12.32
2018-11-02T21:45:12.469Z,12.33
2018-11-02T21:47:41.209Z,12.33
2018-11-02T21:50:10.632Z,12.41
2018-11-02T21:52:39.383Z,12.42
2018-11-02T21:55:08.765Z,12.38
2018-11-02T21:57:37.667Z,12.32
2018-11-02T22:00:13.117Z,12.26
2018-11-02T22:02:42.020Z,12.27
2018-11-02T22:05:11.994Z,12.27
2018-11-02T22:07:41.196Z,12.29
2018-11-02T22:10:10.741Z,12.23
2018-11-02T22:12:39.745Z,12.33
2018-11-02T22:15:09.236Z,12.35
2018-11-02T22:17:37.942Z,12.38
2018-11-02T22:20:08.664Z,12.35
2018-11-02T22:22:37.359Z,12.35
2018-11-02T22:25:07.156Z,12.33
2018-11-02T22:27:36.009Z,12.32
2018-11-02T22:30:13.174Z,12.32
2018-11-02T22:32:42.001Z,12.30
2018-11-02T22:35:11.022Z,12.31
2018-11-02T22:37:40.220Z,12.24
2018-11-02T22:40:10.365Z,12.31
2018-11-02T22:42:39.471Z,12.22
2018-11-02T22:45:08.752Z,12.25
2018-11-02T22:47:37.453Z,12.23
2018-11-02T22:50:07.048Z,12.18
2018-11-02T22:52:35.976Z,12.24
2018-11-02T22:55:04.807Z,12.17
2018-11-02T22:57:33.551Z,12.22
2018-11-02T23:00:02.344Z,12.16
2018-11-02T23:02:31.352Z,12.20
2018-11-02T23:05:00.071Z,12.23
2018-11-02T23:07:28.779Z,12.21
2018-11-02T23:09:57.492Z,12.22
2018-11-02T23:12:26.238Z,12.25
2018-11-02T23:14:54.944Z,12.26
2018-11-02T23:17:23.685Z,12.23
2018-11-02T23:19:52.424Z,12.21
